EJA211 KSYR-KHXD
Flight info
| Callsign | EJA211 |
|---|---|
| Flight time | 1h 49m |
| Altitude | 40000 |
| Route | SYR PTAKI STUBN PSB FINKS IDDAA PANDY JROSS |
| Aircraft | CL60/M-SBDE1E2E3FGHIJ1J4J5J7M3RWXYZ/LB1V1D1 |
Departure
| Time | 2026-04-24 12:00 |
|---|---|
| Airport | Syracuse Hancock International Airport (KSYR) |
Arrival
| Time | 2026-04-24 13:49 |
|---|---|
| Airport | Hilton Head Airport (KHXD) |
| Time | Latitude | Longitude | Altitude | Speed | Heading |
|---|---|---|---|---|---|
| 2026-04-24 11:34 | 43.10645 | -76.11726 | 422 ft | 0 kts | 321° |
| 2026-04-24 11:54 | 43.10654 | -76.11736 | 422 ft | 3 kts | 320° |
| 2026-04-24 11:54 | 43.10680 | -76.11719 | 422 ft | 6 kts | 57° |
| 2026-04-24 11:55 | 43.10724 | -76.11673 | 422 ft | 9 kts | 50° |
| 2026-04-24 11:55 | 43.10731 | -76.11570 | 422 ft | 12 kts | 88° |
| 2026-04-24 11:55 | 43.10734 | -76.11433 | 422 ft | 16 kts | 86° |
| 2026-04-24 11:55 | 43.10717 | -76.11298 | 422 ft | 12 kts | 167° |
| 2026-04-24 11:56 | 43.10630 | -76.11258 | 422 ft | 13 kts | 102° |
| 2026-04-24 11:56 | 43.10633 | -76.11113 | 422 ft | 17 kts | 87° |
| 2026-04-24 11:56 | 43.10639 | -76.10936 | 422 ft | 20 kts | 87° |
| 2026-04-24 11:56 | 43.10645 | -76.10729 | 422 ft | 23 kts | 87° |
| 2026-04-24 11:57 | 43.10652 | -76.10500 | 422 ft | 25 kts | 87° |
| 2026-04-24 11:57 | 43.10661 | -76.10254 | 422 ft | 25 kts | 88° |
| 2026-04-24 11:57 | 43.10667 | -76.10094 | 422 ft | 16 kts | 87° |
| 2026-04-24 11:57 | 43.10672 | -76.09929 | 422 ft | 19 kts | 88° |
| 2026-04-24 11:58 | 43.10679 | -76.09731 | 422 ft | 22 kts | 87° |
| 2026-04-24 11:58 | 43.10684 | -76.09547 | 422 ft | 12 kts | 88° |
| 2026-04-24 11:58 | 43.10648 | -76.09428 | 422 ft | 15 kts | 134° |
| 2026-04-24 11:58 | 43.10643 | -76.09354 | 422 ft | 9 kts | 48° |
| 2026-04-24 11:59 | 43.10712 | -76.09304 | 422 ft | 13 kts | 358° |
| 2026-04-24 11:59 | 43.10748 | -76.09331 | 422 ft | 0 kts | 310° |
| 2026-04-24 11:59 | 43.10753 | -76.09338 | 422 ft | 9 kts | 310° |
| 2026-04-24 11:59 | 43.11034 | -76.09735 | 422 ft | 109 kts | 314° |
| 2026-04-24 12:00 | 43.11717 | -76.10717 | 749 ft | 164 kts | 315° |
| 2026-04-24 12:00 | 43.12555 | -76.11902 | 1519 ft | 195 kts | 316° |
| 2026-04-24 12:00 | 43.13516 | -76.13257 | 2377 ft | 200 kts | 315° |
| 2026-04-24 12:00 | 43.14450 | -76.14736 | 3456 ft | 217 kts | 313° |
| 2026-04-24 12:01 | 43.15492 | -76.16450 | 4027 ft | 251 kts | 311° |
| 2026-04-24 12:01 | 43.16614 | -76.18264 | 4199 ft | 247 kts | 315° |
| 2026-04-24 12:01 | 43.17823 | -76.19971 | 4052 ft | 246 kts | 316° |
| 2026-04-24 12:01 | 43.18713 | -76.21952 | 3995 ft | 250 kts | 294° |
| 2026-04-24 12:02 | 43.19019 | -76.24307 | 3990 ft | 257 kts | 274° |
| 2026-04-24 12:02 | 43.18695 | -76.26739 | 3986 ft | 264 kts | 253° |
| 2026-04-24 12:02 | 43.17706 | -76.28885 | 3998 ft | 272 kts | 230° |
| 2026-04-24 12:02 | 43.16050 | -76.30400 | 4440 ft | 308 kts | 207° |
| 2026-04-24 12:03 | 43.14109 | -76.31516 | 6250 ft | 304 kts | 209° |
| 2026-04-24 12:03 | 43.12217 | -76.32623 | 7927 ft | 302 kts | 211° |
| 2026-04-24 12:03 | 43.10278 | -76.33767 | 9309 ft | 310 kts | 212° |
| 2026-04-24 12:03 | 43.08296 | -76.34934 | 10636 ft | 317 kts | 213° |
| 2026-04-24 12:04 | 43.06298 | -76.36108 | 11966 ft | 321 kts | 213° |
| 2026-04-24 12:04 | 43.04230 | -76.37327 | 13105 ft | 331 kts | 213° |
| 2026-04-24 12:04 | 43.02113 | -76.38570 | 14233 ft | 337 kts | 213° |
| 2026-04-24 12:04 | 42.99966 | -76.39825 | 15436 ft | 339 kts | 213° |
| 2026-04-24 12:05 | 42.97778 | -76.41103 | 16540 ft | 344 kts | 213° |
| 2026-04-24 12:05 | 42.95598 | -76.42378 | 17573 ft | 347 kts | 212° |
| 2026-04-24 12:05 | 42.93389 | -76.43665 | 18606 ft | 350 kts | 212° |
| 2026-04-24 12:05 | 42.91111 | -76.44994 | 19491 ft | 356 kts | 212° |
| 2026-04-24 12:06 | 42.88842 | -76.46317 | 20336 ft | 362 kts | 212° |
| 2026-04-24 12:06 | 42.86495 | -76.47684 | 21165 ft | 367 kts | 212° |
| 2026-04-24 12:06 | 42.84142 | -76.49054 | 21916 ft | 373 kts | 212° |
| 2026-04-24 12:06 | 42.81719 | -76.50462 | 22640 ft | 380 kts | 212° |
| 2026-04-24 12:07 | 42.79281 | -76.51878 | 23417 ft | 384 kts | 212° |
| 2026-04-24 12:07 | 42.76792 | -76.53321 | 24217 ft | 387 kts | 211° |
| 2026-04-24 12:07 | 42.74328 | -76.54748 | 24940 ft | 392 kts | 211° |
| 2026-04-24 12:07 | 42.71816 | -76.56203 | 25655 ft | 396 kts | 211° |
| 2026-04-24 12:08 | 42.69279 | -76.57671 | 26330 ft | 401 kts | 211° |
| 2026-04-24 12:08 | 42.66698 | -76.59163 | 27035 ft | 405 kts | 211° |
| 2026-04-24 12:08 | 42.64138 | -76.60792 | 27628 ft | 405 kts | 217° |
| 2026-04-24 12:08 | 42.61697 | -76.62658 | 28291 ft | 406 kts | 218° |
| 2026-04-24 12:09 | 42.59220 | -76.64565 | 28899 ft | 410 kts | 218° |
| 2026-04-24 12:09 | 42.56712 | -76.66493 | 29442 ft | 415 kts | 217° |
| 2026-04-24 12:09 | 42.54211 | -76.68413 | 29977 ft | 419 kts | 217° |
| 2026-04-24 12:09 | 42.51666 | -76.70364 | 30482 ft | 423 kts | 217° |
| 2026-04-24 12:10 | 42.49100 | -76.72330 | 30939 ft | 428 kts | 217° |
| 2026-04-24 12:10 | 42.46494 | -76.74322 | 31399 ft | 432 kts | 217° |
| 2026-04-24 12:10 | 42.43878 | -76.76321 | 31849 ft | 436 kts | 217° |
| 2026-04-24 12:11 | 42.38539 | -76.80394 | 32690 ft | 443 kts | 217° |
| 2026-04-24 12:11 | 42.35838 | -76.82452 | 33012 ft | 449 kts | 217° |
| 2026-04-24 12:11 | 42.33125 | -76.84516 | 33361 ft | 453 kts | 217° |
| 2026-04-24 12:11 | 42.30371 | -76.86609 | 33711 ft | 456 kts | 217° |
| 2026-04-24 12:12 | 42.27601 | -76.88710 | 34182 ft | 456 kts | 217° |
| 2026-04-24 12:12 | 42.24854 | -76.90791 | 34736 ft | 455 kts | 216° |
| 2026-04-24 12:12 | 42.22080 | -76.92888 | 35408 ft | 451 kts | 216° |
| 2026-04-24 12:12 | 42.19382 | -76.94926 | 36017 ft | 448 kts | 216° |
| 2026-04-24 12:13 | 42.16671 | -76.96973 | 36564 ft | 446 kts | 216° |
| 2026-04-24 12:13 | 42.13982 | -76.99004 | 37065 ft | 445 kts | 216° |
| 2026-04-24 12:13 | 42.11257 | -77.01059 | 37523 ft | 443 kts | 216° |
| 2026-04-24 12:13 | 42.08596 | -77.03120 | 37950 ft | 440 kts | 218° |
| 2026-04-24 12:14 | 42.06024 | -77.05273 | 38386 ft | 438 kts | 219° |
| 2026-04-24 12:14 | 42.03425 | -77.07457 | 38716 ft | 438 kts | 219° |
| 2026-04-24 12:14 | 42.00846 | -77.09621 | 39035 ft | 438 kts | 219° |
| 2026-04-24 12:14 | 41.98267 | -77.11782 | 39328 ft | 439 kts | 219° |
| 2026-04-24 12:15 | 41.95696 | -77.13934 | 39607 ft | 439 kts | 219° |
| 2026-04-24 12:15 | 41.93083 | -77.16119 | 39908 ft | 439 kts | 219° |
| 2026-04-24 12:15 | 41.90483 | -77.18293 | 39921 ft | 443 kts | 218° |
| 2026-04-24 12:16 | 41.85245 | -77.22660 | 39936 ft | 444 kts | 218° |
| 2026-04-24 12:16 | 41.79928 | -77.27090 | 39934 ft | 453 kts | 218° |
| 2026-04-24 12:17 | 41.74520 | -77.31583 | 39934 ft | 462 kts | 218° |
| 2026-04-24 12:17 | 41.69042 | -77.36124 | 39927 ft | 470 kts | 218° |
| 2026-04-24 12:18 | 41.63441 | -77.40755 | 39921 ft | 477 kts | 218° |
| 2026-04-24 12:18 | 41.57785 | -77.45420 | 39926 ft | 481 kts | 217° |
| 2026-04-24 12:19 | 41.52069 | -77.50124 | 39912 ft | 483 kts | 217° |
| 2026-04-24 12:19 | 41.46332 | -77.54833 | 39922 ft | 481 kts | 217° |
| 2026-04-24 12:20 | 41.40670 | -77.59473 | 39909 ft | 480 kts | 217° |
| 2026-04-24 12:20 | 41.34988 | -77.64120 | 39906 ft | 479 kts | 218° |
| 2026-04-24 12:21 | 41.29275 | -77.68783 | 39896 ft | 478 kts | 217° |
| 2026-04-24 12:21 | 41.23613 | -77.73395 | 39903 ft | 477 kts | 217° |
| 2026-04-24 12:22 | 41.17960 | -77.77992 | 39902 ft | 477 kts | 217° |
| 2026-04-24 12:22 | 41.12305 | -77.82581 | 39901 ft | 477 kts | 217° |
| 2026-04-24 12:23 | 41.06642 | -77.87165 | 39903 ft | 477 kts | 216° |
| 2026-04-24 12:23 | 41.00975 | -77.91745 | 39902 ft | 477 kts | 216° |
| 2026-04-24 12:24 | 40.95335 | -77.96292 | 39903 ft | 476 kts | 216° |
| 2026-04-24 12:24 | 40.89353 | -78.00253 | 39897 ft | 483 kts | 204° |
| 2026-04-24 12:25 | 40.82948 | -78.03032 | 39901 ft | 482 kts | 202° |
| 2026-04-24 12:25 | 40.76600 | -78.05769 | 39902 ft | 482 kts | 203° |
| 2026-04-24 12:26 | 40.70219 | -78.08516 | 39903 ft | 483 kts | 203° |
| 2026-04-24 12:26 | 40.63816 | -78.11267 | 39914 ft | 483 kts | 203° |
| 2026-04-24 12:27 | 40.57430 | -78.14006 | 39903 ft | 482 kts | 203° |
| 2026-04-24 12:27 | 40.51066 | -78.16730 | 39904 ft | 481 kts | 203° |
| 2026-04-24 12:28 | 40.44672 | -78.19463 | 39913 ft | 481 kts | 203° |
| 2026-04-24 12:28 | 40.38283 | -78.22187 | 39917 ft | 481 kts | 203° |
| 2026-04-24 12:29 | 40.31950 | -78.24882 | 39918 ft | 480 kts | 203° |
| 2026-04-24 12:29 | 40.25589 | -78.27584 | 39919 ft | 480 kts | 203° |
| 2026-04-24 12:30 | 40.19233 | -78.30278 | 39917 ft | 478 kts | 203° |
| 2026-04-24 12:30 | 40.12916 | -78.32951 | 39912 ft | 478 kts | 203° |
| 2026-04-24 12:31 | 40.06583 | -78.35625 | 39921 ft | 478 kts | 203° |
| 2026-04-24 12:31 | 40.00225 | -78.38305 | 39917 ft | 478 kts | 204° |
| 2026-04-24 12:32 | 39.93917 | -78.40957 | 39914 ft | 477 kts | 203° |
| 2026-04-24 12:32 | 39.87592 | -78.43612 | 39914 ft | 475 kts | 203° |
| 2026-04-24 12:33 | 39.81291 | -78.46252 | 39900 ft | 475 kts | 203° |
| 2026-04-24 12:33 | 39.74996 | -78.48885 | 39910 ft | 475 kts | 203° |
| 2026-04-24 12:34 | 39.68680 | -78.51521 | 39920 ft | 475 kts | 203° |
| 2026-04-24 12:34 | 39.62365 | -78.54151 | 39923 ft | 475 kts | 203° |
| 2026-04-24 12:35 | 39.56099 | -78.56757 | 39914 ft | 474 kts | 203° |
| 2026-04-24 12:35 | 39.49824 | -78.59360 | 39921 ft | 473 kts | 203° |
| 2026-04-24 12:36 | 39.43539 | -78.61963 | 39926 ft | 472 kts | 203° |
| 2026-04-24 12:36 | 39.37257 | -78.64560 | 39908 ft | 473 kts | 203° |
| 2026-04-24 12:37 | 39.31002 | -78.67141 | 39919 ft | 473 kts | 202° |
| 2026-04-24 12:37 | 39.24707 | -78.69733 | 39930 ft | 473 kts | 202° |
| 2026-04-24 12:38 | 39.18469 | -78.72297 | 39941 ft | 472 kts | 202° |
| 2026-04-24 12:38 | 39.12234 | -78.74855 | 39947 ft | 471 kts | 202° |
| 2026-04-24 12:39 | 38.99750 | -78.79963 | 39946 ft | 471 kts | 202° |
| 2026-04-24 12:40 | 38.93505 | -78.82511 | 39935 ft | 470 kts | 202° |
| 2026-04-24 12:40 | 38.87245 | -78.85060 | 39946 ft | 469 kts | 202° |
| 2026-04-24 12:41 | 38.81035 | -78.87585 | 39935 ft | 469 kts | 202° |
| 2026-04-24 12:41 | 38.74827 | -78.90104 | 39942 ft | 469 kts | 202° |
| 2026-04-24 12:42 | 38.68619 | -78.92618 | 39942 ft | 469 kts | 202° |
| 2026-04-24 12:42 | 38.62379 | -78.95141 | 39942 ft | 468 kts | 202° |
| 2026-04-24 12:43 | 38.56183 | -78.97641 | 39943 ft | 468 kts | 201° |
| 2026-04-24 12:43 | 38.49970 | -79.00098 | 39940 ft | 469 kts | 199° |
| 2026-04-24 12:44 | 38.43596 | -79.02099 | 39938 ft | 470 kts | 198° |
| 2026-04-24 12:44 | 38.37248 | -79.04069 | 39951 ft | 469 kts | 197° |
| 2026-04-24 12:45 | 38.30895 | -79.06038 | 39943 ft | 469 kts | 198° |
| 2026-04-24 12:45 | 38.24547 | -79.08004 | 39948 ft | 468 kts | 198° |
| 2026-04-24 12:46 | 38.18206 | -79.09966 | 39968 ft | 468 kts | 197° |
| 2026-04-24 12:46 | 38.11923 | -79.11908 | 39967 ft | 467 kts | 198° |
| 2026-04-24 12:47 | 38.05598 | -79.13860 | 39964 ft | 467 kts | 198° |
| 2026-04-24 12:47 | 37.99274 | -79.15809 | 39971 ft | 466 kts | 198° |
| 2026-04-24 12:48 | 37.92961 | -79.17751 | 39967 ft | 466 kts | 198° |
| 2026-04-24 12:48 | 37.86668 | -79.19684 | 39977 ft | 465 kts | 197° |
| 2026-04-24 12:49 | 37.80373 | -79.21614 | 39977 ft | 465 kts | 198° |
| 2026-04-24 12:49 | 37.74043 | -79.23552 | 39986 ft | 465 kts | 198° |
| 2026-04-24 12:50 | 37.67762 | -79.25472 | 39973 ft | 465 kts | 198° |
| 2026-04-24 12:50 | 37.61499 | -79.27383 | 39972 ft | 464 kts | 198° |
| 2026-04-24 12:51 | 37.55223 | -79.29295 | 39966 ft | 464 kts | 198° |
| 2026-04-24 12:51 | 37.48908 | -79.31216 | 39964 ft | 463 kts | 198° |
| 2026-04-24 12:52 | 37.42655 | -79.33114 | 39964 ft | 463 kts | 198° |
| 2026-04-24 12:52 | 37.36387 | -79.35014 | 39959 ft | 462 kts | 198° |
| 2026-04-24 12:53 | 37.30141 | -79.36903 | 39956 ft | 462 kts | 198° |
| 2026-04-24 12:53 | 37.23909 | -79.38786 | 39957 ft | 461 kts | 198° |
| 2026-04-24 12:54 | 37.17656 | -79.40672 | 39960 ft | 461 kts | 198° |
| 2026-04-24 12:54 | 37.11412 | -79.42551 | 39957 ft | 460 kts | 198° |
| 2026-04-24 12:55 | 37.05199 | -79.44419 | 39957 ft | 460 kts | 198° |
| 2026-04-24 12:55 | 36.98977 | -79.46286 | 39959 ft | 459 kts | 198° |
| 2026-04-24 12:56 | 36.92764 | -79.48148 | 39957 ft | 458 kts | 198° |
| 2026-04-24 12:56 | 36.86546 | -79.50008 | 39956 ft | 458 kts | 198° |
| 2026-04-24 12:57 | 36.80280 | -79.51878 | 39963 ft | 458 kts | 198° |
| 2026-04-24 12:57 | 36.74091 | -79.53724 | 39967 ft | 459 kts | 198° |
| 2026-04-24 12:58 | 36.67880 | -79.55572 | 39963 ft | 459 kts | 198° |
| 2026-04-24 12:58 | 36.61635 | -79.57427 | 39964 ft | 459 kts | 198° |
| 2026-04-24 12:59 | 36.55416 | -79.59272 | 39959 ft | 458 kts | 198° |
| 2026-04-24 12:59 | 36.49174 | -79.61120 | 39970 ft | 458 kts | 198° |
| 2026-04-24 13:00 | 36.42970 | -79.62954 | 39976 ft | 459 kts | 198° |
| 2026-04-24 13:00 | 36.36747 | -79.64791 | 39974 ft | 459 kts | 198° |
| 2026-04-24 13:01 | 36.30529 | -79.66623 | 39978 ft | 459 kts | 197° |
| 2026-04-24 13:01 | 36.24300 | -79.68456 | 39981 ft | 460 kts | 197° |
| 2026-04-24 13:02 | 36.18060 | -79.70289 | 39982 ft | 459 kts | 198° |
| 2026-04-24 13:02 | 36.11816 | -79.72120 | 39979 ft | 459 kts | 197° |
| 2026-04-24 13:03 | 36.05610 | -79.73937 | 39983 ft | 458 kts | 198° |
| 2026-04-24 13:03 | 35.99390 | -79.75754 | 39984 ft | 458 kts | 197° |
| 2026-04-24 13:04 | 35.93191 | -79.77563 | 39982 ft | 458 kts | 197° |
| 2026-04-24 13:04 | 35.86958 | -79.79380 | 39982 ft | 458 kts | 197° |
| 2026-04-24 13:05 | 35.80723 | -79.81194 | 39985 ft | 458 kts | 197° |
| 2026-04-24 13:05 | 35.74507 | -79.82999 | 39990 ft | 458 kts | 197° |
| 2026-04-24 13:06 | 35.68263 | -79.84809 | 39989 ft | 458 kts | 197° |
| 2026-04-24 13:06 | 35.62036 | -79.86612 | 39994 ft | 458 kts | 197° |
| 2026-04-24 13:07 | 35.55824 | -79.88407 | 40000 ft | 457 kts | 197° |
| 2026-04-24 13:07 | 35.49660 | -79.90185 | 39997 ft | 457 kts | 197° |
| 2026-04-24 13:08 | 35.43421 | -79.91984 | 39995 ft | 457 kts | 197° |
| 2026-04-24 13:08 | 35.37243 | -79.93761 | 39990 ft | 457 kts | 197° |
| 2026-04-24 13:09 | 35.27949 | -79.96429 | 39994 ft | 457 kts | 197° |
| 2026-04-24 13:09 | 35.21757 | -79.98204 | 40001 ft | 456 kts | 197° |
| 2026-04-24 13:10 | 35.15517 | -79.99957 | 39998 ft | 456 kts | 197° |
| 2026-04-24 13:10 | 35.09334 | -80.01640 | 40000 ft | 456 kts | 197° |
| 2026-04-24 13:11 | 35.03100 | -80.03335 | 40001 ft | 456 kts | 196° |
| 2026-04-24 13:11 | 34.96872 | -80.05026 | 40006 ft | 456 kts | 197° |
| 2026-04-24 13:12 | 34.90653 | -80.06712 | 40012 ft | 456 kts | 196° |
| 2026-04-24 13:12 | 34.84423 | -80.08400 | 40003 ft | 456 kts | 196° |
| 2026-04-24 13:13 | 34.78199 | -80.10082 | 39996 ft | 457 kts | 196° |
| 2026-04-24 13:13 | 34.71971 | -80.11763 | 40011 ft | 456 kts | 196° |
| 2026-04-24 13:14 | 34.65736 | -80.13444 | 40009 ft | 456 kts | 196° |
| 2026-04-24 13:14 | 34.59537 | -80.15112 | 40001 ft | 456 kts | 196° |
| 2026-04-24 13:15 | 34.53327 | -80.16781 | 40009 ft | 456 kts | 196° |
| 2026-04-24 13:15 | 34.47107 | -80.18450 | 40009 ft | 456 kts | 196° |
| 2026-04-24 13:16 | 34.40850 | -80.20126 | 40014 ft | 456 kts | 196° |
| 2026-04-24 13:16 | 34.34653 | -80.21784 | 40012 ft | 457 kts | 196° |
| 2026-04-24 13:17 | 34.28419 | -80.23450 | 40011 ft | 457 kts | 196° |
| 2026-04-24 13:17 | 34.22163 | -80.25118 | 40008 ft | 456 kts | 195° |
| 2026-04-24 13:18 | 34.15981 | -80.26764 | 40017 ft | 456 kts | 195° |
| 2026-04-24 13:18 | 34.09853 | -80.28391 | 40024 ft | 434 kts | 196° |
| 2026-04-24 13:19 | 34.04054 | -80.29928 | 40017 ft | 419 kts | 196° |
| 2026-04-24 13:19 | 33.98389 | -80.31431 | 40026 ft | 413 kts | 196° |
| 2026-04-24 13:20 | 33.95570 | -80.32179 | 39873 ft | 416 kts | 196° |
| 2026-04-24 13:20 | 33.92731 | -80.32932 | 39206 ft | 419 kts | 195° |
| 2026-04-24 13:20 | 33.89955 | -80.33667 | 38583 ft | 418 kts | 195° |
| 2026-04-24 13:20 | 33.87065 | -80.34432 | 37926 ft | 417 kts | 195° |
| 2026-04-24 13:21 | 33.84194 | -80.35191 | 37271 ft | 416 kts | 195° |
| 2026-04-24 13:21 | 33.81388 | -80.35932 | 36625 ft | 415 kts | 195° |
| 2026-04-24 13:21 | 33.78563 | -80.36678 | 35975 ft | 414 kts | 195° |
| 2026-04-24 13:21 | 33.75758 | -80.37418 | 35335 ft | 413 kts | 195° |
| 2026-04-24 13:22 | 33.72946 | -80.38158 | 34688 ft | 413 kts | 195° |
| 2026-04-24 13:22 | 33.70126 | -80.38902 | 34042 ft | 416 kts | 194° |
| 2026-04-24 13:22 | 33.67293 | -80.39648 | 33417 ft | 419 kts | 194° |
| 2026-04-24 13:22 | 33.64421 | -80.40403 | 32769 ft | 420 kts | 194° |
| 2026-04-24 13:23 | 33.61549 | -80.41158 | 32116 ft | 419 kts | 194° |
| 2026-04-24 13:23 | 33.58718 | -80.41901 | 31470 ft | 418 kts | 194° |
| 2026-04-24 13:23 | 33.55856 | -80.42651 | 30805 ft | 418 kts | 194° |
| 2026-04-24 13:23 | 33.53012 | -80.43398 | 30036 ft | 419 kts | 194° |
| 2026-04-24 13:24 | 33.50188 | -80.44138 | 29368 ft | 418 kts | 194° |
| 2026-04-24 13:24 | 33.47348 | -80.44877 | 28785 ft | 414 kts | 193° |
| 2026-04-24 13:24 | 33.44518 | -80.45556 | 28254 ft | 409 kts | 192° |
| 2026-04-24 13:24 | 33.41758 | -80.46204 | 27732 ft | 405 kts | 192° |
| 2026-04-24 13:25 | 33.39004 | -80.46852 | 27207 ft | 401 kts | 193° |
| 2026-04-24 13:25 | 33.36259 | -80.47497 | 26677 ft | 396 kts | 193° |
| 2026-04-24 13:25 | 33.33579 | -80.48126 | 26155 ft | 393 kts | 193° |
| 2026-04-24 13:25 | 33.30905 | -80.48754 | 25630 ft | 389 kts | 193° |
| 2026-04-24 13:26 | 33.28251 | -80.49377 | 25104 ft | 385 kts | 193° |
| 2026-04-24 13:26 | 33.25620 | -80.49995 | 24576 ft | 382 kts | 193° |
| 2026-04-24 13:26 | 33.23032 | -80.50601 | 24053 ft | 378 kts | 193° |
| 2026-04-24 13:26 | 33.20435 | -80.51210 | 23524 ft | 375 kts | 193° |
| 2026-04-24 13:27 | 33.17897 | -80.51804 | 23004 ft | 372 kts | 193° |
| 2026-04-24 13:27 | 33.15349 | -80.52401 | 22482 ft | 368 kts | 193° |
| 2026-04-24 13:27 | 33.12869 | -80.52982 | 21964 ft | 364 kts | 193° |
| 2026-04-24 13:27 | 33.10371 | -80.53566 | 21436 ft | 361 kts | 193° |
| 2026-04-24 13:28 | 33.07903 | -80.54143 | 20912 ft | 357 kts | 193° |
| 2026-04-24 13:28 | 33.05486 | -80.54708 | 20391 ft | 354 kts | 193° |
| 2026-04-24 13:28 | 33.03026 | -80.55283 | 19852 ft | 350 kts | 193° |
| 2026-04-24 13:28 | 33.00626 | -80.55843 | 19347 ft | 347 kts | 193° |
| 2026-04-24 13:29 | 32.98266 | -80.56393 | 18871 ft | 342 kts | 193° |
| 2026-04-24 13:29 | 32.95908 | -80.56943 | 18434 ft | 337 kts | 193° |
| 2026-04-24 13:29 | 32.93588 | -80.57484 | 17999 ft | 332 kts | 194° |
| 2026-04-24 13:29 | 32.91324 | -80.58010 | 17777 ft | 321 kts | 193° |
| 2026-04-24 13:30 | 32.89130 | -80.58522 | 17451 ft | 322 kts | 194° |
| 2026-04-24 13:30 | 32.86920 | -80.59037 | 17099 ft | 321 kts | 193° |
| 2026-04-24 13:30 | 32.84718 | -80.59550 | 16731 ft | 319 kts | 193° |
| 2026-04-24 13:30 | 32.82527 | -80.60060 | 16394 ft | 317 kts | 193° |
| 2026-04-24 13:31 | 32.80344 | -80.60568 | 16030 ft | 315 kts | 193° |
| 2026-04-24 13:31 | 32.78193 | -80.61068 | 15684 ft | 313 kts | 193° |
| 2026-04-24 13:31 | 32.76025 | -80.61571 | 15320 ft | 311 kts | 193° |
| 2026-04-24 13:31 | 32.73886 | -80.62068 | 14979 ft | 309 kts | 193° |
| 2026-04-24 13:32 | 32.71775 | -80.62558 | 14631 ft | 308 kts | 193° |
| 2026-04-24 13:32 | 32.69674 | -80.63055 | 14264 ft | 305 kts | 193° |
| 2026-04-24 13:32 | 32.67595 | -80.63557 | 13924 ft | 304 kts | 193° |
| 2026-04-24 13:32 | 32.65526 | -80.64063 | 13576 ft | 302 kts | 193° |
| 2026-04-24 13:33 | 32.63452 | -80.64574 | 13226 ft | 300 kts | 193° |
| 2026-04-24 13:33 | 32.61388 | -80.65086 | 12869 ft | 297 kts | 193° |
| 2026-04-24 13:33 | 32.59361 | -80.65594 | 12523 ft | 296 kts | 193° |
| 2026-04-24 13:33 | 32.57338 | -80.66108 | 12176 ft | 294 kts | 193° |
| 2026-04-24 13:34 | 32.55323 | -80.66627 | 11820 ft | 292 kts | 193° |
| 2026-04-24 13:34 | 32.53308 | -80.67152 | 11466 ft | 291 kts | 193° |
| 2026-04-24 13:34 | 32.51326 | -80.67675 | 11116 ft | 289 kts | 193° |
| 2026-04-24 13:34 | 32.49350 | -80.68205 | 10765 ft | 287 kts | 193° |
| 2026-04-24 13:35 | 32.47415 | -80.68735 | 10422 ft | 286 kts | 193° |
| 2026-04-24 13:35 | 32.45460 | -80.69281 | 10068 ft | 284 kts | 193° |
| 2026-04-24 13:35 | 32.43545 | -80.69827 | 9719 ft | 282 kts | 193° |
| 2026-04-24 13:35 | 32.41626 | -80.70383 | 9365 ft | 280 kts | 193° |
| 2026-04-24 13:36 | 32.39713 | -80.70941 | 9013 ft | 279 kts | 193° |
| 2026-04-24 13:36 | 32.37871 | -80.71670 | 8664 ft | 279 kts | 203° |
| 2026-04-24 13:36 | 32.36114 | -80.72662 | 8293 ft | 275 kts | 205° |
| 2026-04-24 13:36 | 32.34427 | -80.73646 | 7967 ft | 261 kts | 205° |
| 2026-04-24 13:37 | 32.32835 | -80.74578 | 7831 ft | 243 kts | 205° |
| 2026-04-24 13:37 | 32.31337 | -80.75457 | 7716 ft | 236 kts | 205° |
| 2026-04-24 13:37 | 32.29836 | -80.76334 | 7313 ft | 242 kts | 205° |
| 2026-04-24 13:37 | 32.28328 | -80.77216 | 6964 ft | 242 kts | 205° |
| 2026-04-24 13:38 | 32.26803 | -80.78113 | 6639 ft | 240 kts | 205° |
| 2026-04-24 13:38 | 32.25306 | -80.78996 | 6318 ft | 239 kts | 205° |
| 2026-04-24 13:38 | 32.23810 | -80.79878 | 5989 ft | 238 kts | 205° |
| 2026-04-24 13:38 | 32.22319 | -80.80751 | 5666 ft | 237 kts | 205° |
| 2026-04-24 13:39 | 32.20823 | -80.81620 | 5342 ft | 235 kts | 205° |
| 2026-04-24 13:39 | 32.19347 | -80.82471 | 5013 ft | 234 kts | 205° |
| 2026-04-24 13:39 | 32.17880 | -80.83303 | 4685 ft | 233 kts | 205° |
| 2026-04-24 13:39 | 32.16415 | -80.84125 | 4360 ft | 231 kts | 205° |
| 2026-04-24 13:40 | 32.14965 | -80.84923 | 4041 ft | 230 kts | 205° |
| 2026-04-24 13:40 | 32.13497 | -80.85719 | 3710 ft | 229 kts | 205° |
| 2026-04-24 13:40 | 32.12055 | -80.86489 | 3387 ft | 228 kts | 205° |
| 2026-04-24 13:40 | 32.10614 | -80.87249 | 3056 ft | 227 kts | 205° |
| 2026-04-24 13:41 | 32.09158 | -80.88020 | 2727 ft | 225 kts | 205° |
| 2026-04-24 13:41 | 32.07733 | -80.88782 | 2402 ft | 224 kts | 205° |
| 2026-04-24 13:41 | 32.06327 | -80.89540 | 2093 ft | 218 kts | 205° |
| 2026-04-24 13:41 | 32.04969 | -80.90189 | 1890 ft | 200 kts | 196° |
| 2026-04-24 13:42 | 32.03653 | -80.90404 | 1887 ft | 184 kts | 179° |
| 2026-04-24 13:42 | 32.02376 | -80.90215 | 1877 ft | 184 kts | 173° |
| 2026-04-24 13:42 | 32.01120 | -80.89854 | 1870 ft | 186 kts | 157° |
| 2026-04-24 13:42 | 32.00159 | -80.88855 | 1866 ft | 189 kts | 124° |
| 2026-04-24 13:43 | 31.99846 | -80.87334 | 1870 ft | 192 kts | 87° |
| 2026-04-24 13:43 | 32.00238 | -80.85822 | 1883 ft | 194 kts | 68° |
| 2026-04-24 13:43 | 32.00759 | -80.84358 | 1881 ft | 193 kts | 68° |
| 2026-04-24 13:43 | 32.01273 | -80.82883 | 1877 ft | 193 kts | 68° |
| 2026-04-24 13:44 | 32.01954 | -80.81614 | 1867 ft | 194 kts | 43° |
| 2026-04-24 13:44 | 32.03112 | -80.80794 | 1878 ft | 193 kts | 24° |
| 2026-04-24 13:44 | 32.04340 | -80.80128 | 1880 ft | 192 kts | 24° |
| 2026-04-24 13:44 | 32.05558 | -80.79442 | 1874 ft | 192 kts | 25° |
| 2026-04-24 13:45 | 32.06762 | -80.78754 | 1876 ft | 192 kts | 25° |
| 2026-04-24 13:45 | 32.07960 | -80.78067 | 1875 ft | 187 kts | 25° |
| 2026-04-24 13:45 | 32.09101 | -80.77412 | 1895 ft | 176 kts | 24° |
| 2026-04-24 13:45 | 32.10202 | -80.76781 | 1882 ft | 173 kts | 24° |
| 2026-04-24 13:46 | 32.11287 | -80.76159 | 1877 ft | 171 kts | 25° |
| 2026-04-24 13:46 | 32.12328 | -80.75560 | 1880 ft | 164 kts | 24° |
| 2026-04-24 13:46 | 32.13354 | -80.74970 | 1834 ft | 163 kts | 24° |
| 2026-04-24 13:46 | 32.14345 | -80.74400 | 1618 ft | 144 kts | 24° |
| 2026-04-24 13:47 | 32.15202 | -80.73907 | 1479 ft | 135 kts | 24° |
| 2026-04-24 13:47 | 32.16047 | -80.73424 | 1242 ft | 132 kts | 24° |
| 2026-04-24 13:47 | 32.16880 | -80.72946 | 1115 ft | 135 kts | 24° |
| 2026-04-24 13:47 | 32.17730 | -80.72459 | 914 ft | 134 kts | 24° |
| 2026-04-24 13:48 | 32.18574 | -80.71981 | 777 ft | 137 kts | 24° |
| 2026-04-24 13:48 | 32.19429 | -80.71481 | 635 ft | 132 kts | 24° |
| 2026-04-24 13:48 | 32.20240 | -80.71005 | 410 ft | 129 kts | 24° |
| 2026-04-24 13:48 | 32.21064 | -80.70534 | 241 ft | 132 kts | 22° |
| 2026-04-24 13:49 | 32.21887 | -80.70064 | 63 ft | 129 kts | 23° |
| 2026-04-24 13:49 | 32.22638 | -80.69637 | 18 ft | 96 kts | 21° |
| 2026-04-24 13:49 | 32.22886 | -80.69492 | 17 ft | 20 kts | 25° |
| 2026-04-24 13:49 | 32.22947 | -80.69410 | 17 ft | 12 kts | 114° |
| 2026-04-24 13:50 | 32.22889 | -80.69382 | 17 ft | 12 kts | 205° |
| 2026-04-24 13:50 | 32.22801 | -80.69434 | 17 ft | 15 kts | 206° |
| 2026-04-24 13:50 | 32.22691 | -80.69496 | 17 ft | 19 kts | 205° |
| 2026-04-24 13:50 | 32.22561 | -80.69570 | 17 ft | 18 kts | 204° |
| 2026-04-24 13:51 | 32.22492 | -80.69607 | 17 ft | 12 kts | 205° |
| 2026-04-24 13:51 | 32.22402 | -80.69659 | 17 ft | 16 kts | 206° |
| 2026-04-24 13:51 | 32.22290 | -80.69723 | 17 ft | 19 kts | 205° |
| 2026-04-24 13:51 | 32.22197 | -80.69741 | 17 ft | 10 kts | 129° |
| 2026-04-24 13:52 | 32.22190 | -80.69727 | 17 ft | 0 kts | 116° |